createdAt,value
2018-05-31T00:00:10.044Z,99.90
2018-05-31T00:02:37.574Z,99.90
2018-05-31T00:05:05.084Z,99.90
2018-05-31T00:07:32.609Z,99.90
2018-05-31T00:10:00.111Z,99.90
2018-05-31T00:12:27.639Z,99.90
2018-05-31T00:14:55.133Z,99.90
2018-05-31T00:17:22.662Z,99.90
2018-05-31T00:19:50.921Z,99.90
2018-05-31T00:22:18.537Z,99.90
2018-05-31T00:24:46.051Z,99.90
2018-05-31T00:27:13.583Z,99.90
2018-05-31T00:29:41.082Z,99.90
2018-05-31T00:32:08.606Z,99.90
2018-05-31T00:34:36.867Z,99.90
2018-05-31T00:37:04.391Z,99.90
2018-05-31T00:39:31.898Z,99.90
2018-05-31T00:41:59.430Z,99.90
2018-05-31T00:44:26.921Z,99.90
2018-05-31T00:46:54.415Z,99.90
2018-05-31T00:49:21.955Z,99.90
2018-05-31T00:51:49.445Z,99.90
2018-05-31T00:54:16.974Z,99.90
2018-05-31T00:56:45.243Z,99.90
2018-05-31T00:59:13.530Z,99.90
2018-05-31T01:01:41.017Z,99.90
2018-05-31T01:04:09.410Z,99.90
2018-05-31T01:06:36.914Z,99.90
2018-05-31T01:09:05.193Z,99.90
2018-05-31T01:11:32.689Z,99.90
2018-05-31T01:14:00.214Z,99.90
2018-05-31T01:16:27.706Z,99.90
2018-05-31T01:18:55.234Z,99.90
2018-05-31T01:21:23.507Z,99.90
2018-05-31T01:23:51.043Z,99.90
2018-05-31T01:26:18.553Z,99.90
2018-05-31T01:28:46.069Z,99.90
2018-05-31T01:31:13.572Z,99.90
2018-05-31T01:33:41.094Z,99.90
2018-05-31T01:36:08.595Z,99.90
2018-05-31T01:38:36.130Z,99.90
2018-05-31T01:41:04.382Z,99.90
2018-05-31T01:43:31.932Z,99.90
2018-05-31T01:45:59.436Z,99.90
2018-05-31T01:48:27.135Z,99.90
2018-05-31T01:50:54.665Z,99.90
2018-05-31T01:53:22.339Z,99.90
2018-05-31T01:55:50.645Z,99.90
2018-05-31T01:58:18.205Z,99.90
2018-05-31T02:00:45.707Z,99.90
2018-05-31T02:03:13.256Z,99.90
2018-05-31T02:05:40.768Z,99.90
2018-05-31T02:08:08.307Z,99.90
2018-05-31T02:10:35.814Z,99.90
2018-05-31T02:13:03.368Z,99.90
2018-05-31T02:15:30.866Z,99.90
2018-05-31T02:17:58.419Z,99.90
2018-05-31T02:20:25.933Z,99.90
2018-05-31T02:22:53.477Z,99.90
2018-05-31T02:25:20.978Z,99.90
2018-05-31T02:27:48.519Z,99.90
2018-05-31T02:30:16.022Z,99.90
2018-05-31T02:32:43.575Z,99.90
2018-05-31T02:35:11.082Z,99.90
2018-05-31T02:37:38.622Z,99.90
2018-05-31T02:40:06.139Z,99.90
2018-05-31T02:42:33.649Z,99.90
2018-05-31T02:45:02.394Z,99.90
2018-05-31T02:47:29.905Z,99.90
2018-05-31T02:49:57.465Z,99.90
2018-05-31T02:52:24.976Z,99.90
2018-05-31T02:54:52.522Z,99.90
2018-05-31T02:57:20.044Z,99.90
2018-05-31T02:59:47.579Z,99.90
2018-05-31T03:02:15.097Z,99.90
2018-05-31T03:04:43.484Z,99.90
2018-05-31T03:07:10.975Z,99.90
2018-05-31T03:09:38.518Z,99.90
2018-05-31T03:12:06.037Z,99.90
2018-05-31T03:14:33.580Z,99.90
2018-05-31T03:17:01.851Z,99.90
2018-05-31T03:19:29.394Z,99.90
2018-05-31T03:21:56.902Z,99.90
2018-05-31T03:24:24.447Z,99.90
2018-05-31T03:26:51.957Z,99.90
2018-05-31T03:29:19.511Z,99.90
2018-05-31T03:31:47.778Z,99.90
2018-05-31T03:34:15.326Z,99.90
2018-05-31T03:36:42.822Z,99.90
2018-05-31T03:39:10.372Z,99.90
2018-05-31T03:41:37.871Z,99.90
2018-05-31T03:44:05.412Z,99.90
2018-05-31T03:46:32.921Z,99.90
2018-05-31T03:49:00.462Z,99.90
2018-05-31T03:51:27.963Z,99.90
2018-05-31T03:53:55.513Z,99.90
2018-05-31T03:56:23.018Z,99.90
2018-05-31T03:58:51.329Z,99.90
2018-05-31T04:01:18.830Z,99.90
2018-05-31T04:03:46.375Z,99.90
2018-05-31T04:06:13.878Z,99.90
2018-05-31T04:08:41.421Z,99.90
2018-05-31T04:11:08.912Z,99.90
2018-05-31T04:13:36.459Z,99.90
2018-05-31T04:16:03.963Z,99.90
2018-05-31T04:18:31.509Z,99.90
2018-05-31T04:20:59.016Z,99.90
2018-05-31T04:23:26.552Z,99.90
2018-05-31T04:25:54.056Z,99.90
2018-05-31T04:28:21.590Z,99.90
2018-05-31T04:30:49.086Z,99.90
2018-05-31T04:33:16.783Z,99.90
2018-05-31T04:35:44.284Z,99.90
2018-05-31T04:38:11.790Z,99.90
2018-05-31T04:40:39.328Z,99.90
2018-05-31T04:43:06.834Z,99.90
2018-05-31T04:45:34.375Z,99.90
2018-05-31T04:48:01.885Z,99.90
2018-05-31T04:50:29.426Z,99.90
2018-05-31T04:52:56.961Z,99.90
2018-05-31T04:55:25.262Z,99.90
2018-05-31T04:57:53.543Z,99.90
2018-05-31T05:00:21.848Z,99.90
2018-05-31T05:02:49.351Z,99.90
2018-05-31T05:05:16.898Z,99.90
2018-05-31T05:07:44.398Z,99.90
2018-05-31T05:10:11.930Z,99.90
2018-05-31T05:12:39.434Z,99.90
2018-05-31T05:15:06.966Z,99.90
2018-05-31T05:17:34.489Z,99.90
2018-05-31T05:20:02.029Z,99.90
2018-05-31T05:22:29.514Z,99.90
2018-05-31T05:24:57.056Z,99.90
2018-05-31T05:27:24.553Z,99.90
2018-05-31T05:29:52.091Z,99.90
2018-05-31T05:32:20.357Z,99.90
2018-05-31T05:34:47.907Z,99.90
2018-05-31T05:37:15.402Z,99.90
2018-05-31T05:39:43.761Z,99.90
2018-05-31T05:42:11.266Z,99.90
2018-05-31T05:44:38.798Z,99.90
2018-05-31T05:47:06.316Z,99.90
2018-05-31T05:49:34.634Z,99.90
2018-05-31T05:52:02.163Z,99.90
2018-05-31T05:54:29.706Z,99.90
2018-05-31T05:56:57.220Z,99.90
2018-05-31T05:59:24.784Z,99.90
2018-05-31T06:01:53.114Z,99.90
2018-05-31T06:04:20.625Z,99.90
2018-05-31T06:06:48.145Z,99.90
2018-05-31T06:09:15.687Z,99.90
2018-05-31T06:11:43.941Z,99.90
2018-05-31T06:14:11.492Z,99.90
2018-05-31T06:16:38.999Z,99.90
2018-05-31T06:19:06.540Z,99.90
2018-05-31T06:21:34.034Z,99.90
2018-05-31T06:24:01.584Z,99.90
2018-05-31T06:26:29.139Z,99.90
2018-05-31T06:28:56.777Z,99.90
2018-05-31T06:31:25.059Z,99.90
2018-05-31T06:33:53.340Z,99.90
2018-05-31T06:36:20.878Z,99.90
2018-05-31T06:38:49.141Z,99.90
2018-05-31T06:41:16.666Z,99.90
2018-05-31T06:43:44.163Z,99.90
2018-05-31T06:46:12.467Z,99.90
2018-05-31T06:48:39.972Z,99.90
2018-05-31T06:51:07.481Z,99.90
2018-05-31T06:53:35.166Z,99.90
2018-05-31T06:56:03.432Z,99.90
2018-05-31T06:58:30.935Z,99.90
2018-05-31T07:00:59.231Z,99.90
2018-05-31T07:03:27.483Z,99.90
2018-05-31T07:05:54.984Z,99.90
2018-05-31T07:08:23.426Z,99.90
2018-05-31T07:10:50.936Z,99.90
2018-05-31T07:13:19.193Z,99.90
2018-05-31T07:15:46.733Z,99.90
2018-05-31T07:18:14.226Z,99.90
2018-05-31T07:20:41.722Z,99.90
2018-05-31T07:23:09.415Z,99.90
2018-05-31T07:25:37.685Z,99.90
2018-05-31T07:28:05.193Z,99.90
2018-05-31T07:30:32.729Z,99.90
2018-05-31T07:33:00.228Z,99.90
2018-05-31T07:35:27.740Z,99.90
2018-05-31T07:37:55.272Z,99.90
2018-05-31T07:40:22.776Z,99.90
2018-05-31T07:42:50.283Z,99.90
2018-05-31T07:45:17.833Z,99.90
2018-05-31T07:47:45.321Z,99.90
2018-05-31T07:50:12.864Z,99.90
2018-05-31T07:52:40.357Z,99.90
2018-05-31T07:55:07.873Z,99.90
2018-05-31T07:57:35.406Z,99.90
2018-05-31T08:00:02.905Z,99.90
2018-05-31T08:02:30.395Z,99.90
2018-05-31T08:04:57.935Z,99.90
2018-05-31T08:07:26.198Z,99.90
2018-05-31T08:09:53.696Z,99.90
2018-05-31T08:12:21.999Z,99.90
2018-05-31T08:14:49.507Z,99.90
2018-05-31T08:17:17.192Z,99.90
2018-05-31T08:19:44.687Z,99.90
2018-05-31T08:22:12.190Z,99.90
2018-05-31T08:24:39.723Z,99.90
2018-05-31T08:27:07.225Z,99.90
2018-05-31T08:29:34.732Z,99.90
2018-05-31T08:32:02.418Z,99.90
2018-05-31T08:34:29.919Z,99.90
2018-05-31T08:36:57.423Z,99.90
2018-05-31T08:39:25.166Z,99.90
2018-05-31T08:41:53.419Z,99.90
2018-05-31T08:44:20.907Z,99.90
2018-05-31T08:46:48.442Z,99.90
2018-05-31T08:49:15.944Z,99.90
2018-05-31T08:51:43.449Z,99.90
2018-05-31T08:54:11.028Z,99.40
2018-05-31T08:56:38.544Z,99.50
2018-05-31T08:59:06.037Z,99.00
2018-05-31T09:01:33.628Z,97.80
2018-05-31T09:04:01.894Z,97.00
2018-05-31T09:06:30.399Z,96.90
2018-05-31T09:08:58.669Z,95.90
2018-05-31T09:11:26.163Z,96.20
2018-05-31T09:13:54.471Z,95.60
2018-05-31T09:16:21.966Z,95.60
2018-05-31T09:18:49.476Z,95.20
2018-05-31T09:21:17.031Z,95.20
2018-05-31T09:23:44.534Z,94.70
2018-05-31T09:26:12.790Z,93.80
2018-05-31T09:28:40.335Z,93.80
2018-05-31T09:31:07.830Z,94.10
2018-05-31T09:33:35.332Z,95.00
2018-05-31T09:36:03.643Z,96.30
2018-05-31T09:38:31.152Z,96.30
2018-05-31T09:40:58.661Z,96.00
2018-05-31T09:43:26.968Z,96.20
2018-05-31T09:45:54.483Z,96.10
2018-05-31T09:48:22.043Z,95.90
2018-05-31T09:50:49.535Z,95.40
2018-05-31T09:53:17.031Z,96.10
2018-05-31T09:55:45.340Z,96.50
2018-05-31T09:58:12.864Z,96.20
2018-05-31T10:00:40.378Z,96.40
2018-05-31T10:03:07.870Z,96.80
2018-05-31T10:05:35.362Z,96.90
2018-05-31T10:08:02.891Z,97.50
2018-05-31T10:10:31.164Z,97.90
2018-05-31T10:12:59.615Z,97.70
2018-05-31T10:15:27.099Z,97.70
2018-05-31T10:17:54.604Z,97.80
2018-05-31T10:20:22.137Z,97.60
2018-05-31T10:22:49.632Z,97.90
2018-05-31T10:25:17.137Z,97.20
2018-05-31T10:27:44.678Z,97.60
2018-05-31T10:30:20.070Z,97.80
2018-05-31T10:32:47.624Z,97.80
2018-05-31T10:35:15.126Z,98.10
2018-05-31T10:37:42.655Z,98.00
2018-05-31T10:40:10.963Z,97.30
2018-05-31T10:42:38.474Z,97.30
2018-05-31T10:45:05.996Z,98.10
2018-05-31T10:47:33.535Z,97.40
2018-05-31T10:50:01.031Z,97.50
2018-05-31T10:52:29.292Z,96.40
2018-05-31T10:54:56.831Z,96.40
2018-05-31T10:57:24.323Z,96.80
2018-05-31T10:59:51.863Z,96.10
2018-05-31T11:02:19.351Z,96.60
2018-05-31T11:04:46.846Z,96.30
2018-05-31T11:07:14.548Z,96.20
2018-05-31T11:09:42.828Z,97.60
2018-05-31T11:12:11.094Z,98.10
2018-05-31T11:14:38.649Z,98.00
2018-05-31T11:17:06.153Z,97.80
2018-05-31T11:19:34.426Z,98.40
2018-05-31T11:22:02.263Z,98.30
2018-05-31T11:24:29.777Z,97.80
2018-05-31T11:26:57.295Z,97.00
2018-05-31T11:29:24.838Z,96.90
2018-05-31T11:31:53.110Z,97.20
2018-05-31T11:34:20.624Z,97.20
2018-05-31T11:36:48.176Z,97.10
2018-05-31T11:39:15.688Z,97.00
2018-05-31T11:41:43.182Z,97.60
2018-05-31T11:44:10.876Z,97.30
2018-05-31T11:46:39.148Z,98.00
2018-05-31T11:49:06.642Z,98.00
2018-05-31T11:51:35.091Z,97.90
2018-05-31T11:54:02.593Z,97.90
2018-05-31T11:56:30.193Z,97.80
2018-05-31T11:58:57.651Z,98.00
2018-05-31T12:01:25.906Z,97.90
2018-05-31T12:03:53.451Z,97.90
2018-05-31T12:06:21.256Z,98.10
2018-05-31T12:08:49.400Z,98.30
2018-05-31T12:11:17.386Z,98.40
2018-05-31T12:13:44.931Z,98.10
2018-05-31T12:16:13.198Z,98.50
2018-05-31T12:18:40.690Z,98.50
2018-05-31T12:21:09.000Z,97.90
2018-05-31T12:23:36.495Z,97.90
2018-05-31T12:26:04.138Z,97.30
2018-05-31T12:28:31.694Z,97.40
2018-05-31T12:30:59.967Z,98.60
2018-05-31T12:33:28.250Z,99.00
2018-05-31T12:35:55.795Z,99.00
2018-05-31T12:38:23.290Z,99.00
2018-05-31T12:40:50.800Z,98.70
2018-05-31T12:43:18.529Z,99.10
2018-05-31T12:45:46.812Z,99.30
2018-05-31T12:48:14.332Z,98.90
2018-05-31T12:50:41.874Z,98.40
2018-05-31T12:53:09.359Z,98.50
2018-05-31T12:55:37.814Z,98.40
2018-05-31T12:58:05.311Z,98.40
2018-05-31T13:00:33.571Z,98.10
2018-05-31T13:03:01.260Z,97.70
2018-05-31T13:05:29.407Z,97.90
2018-05-31T13:07:56.913Z,97.90
2018-05-31T13:10:24.603Z,98.00
2018-05-31T13:12:52.876Z,98.00
2018-05-31T13:15:20.369Z,97.90
2018-05-31T13:17:48.843Z,97.60
2018-05-31T13:20:16.364Z,97.60
2018-05-31T13:22:43.859Z,96.90
2018-05-31T13:25:11.445Z,96.40
2018-05-31T13:27:38.944Z,96.70
2018-05-31T13:30:07.360Z,96.60
2018-05-31T13:32:35.071Z,96.60
2018-05-31T13:35:02.573Z,96.30
2018-05-31T13:37:30.835Z,97.00
2018-05-31T13:39:58.363Z,97.00
2018-05-31T13:42:25.855Z,97.00
2018-05-31T13:44:53.363Z,97.00
2018-05-31T13:47:20.916Z,97.40
2018-05-31T13:49:49.999Z,97.30
2018-05-31T13:52:17.956Z,97.10
2018-05-31T13:54:46.262Z,96.60
2018-05-31T13:57:14.527Z,97.10
2018-05-31T13:59:42.800Z,96.40
2018-05-31T14:02:10.323Z,96.40
2018-05-31T14:04:37.822Z,96.40
2018-05-31T14:07:05.328Z,96.20
2018-05-31T14:09:32.862Z,96.70
2018-05-31T14:12:00.358Z,96.30
2018-05-31T14:14:28.053Z,96.20
2018-05-31T14:16:56.321Z,96.10
2018-05-31T14:19:23.818Z,96.10
2018-05-31T14:21:51.348Z,96.00
2018-05-31T14:24:18.860Z,96.50
2018-05-31T14:26:47.159Z,96.60
2018-05-31T14:29:14.647Z,96.60
2018-05-31T14:31:42.153Z,96.80
2018-05-31T14:34:09.827Z,96.60
2018-05-31T14:36:37.346Z,96.10
2018-05-31T14:39:05.697Z,95.90
2018-05-31T14:41:33.312Z,96.00
2018-05-31T14:44:00.812Z,96.20
2018-05-31T14:46:28.308Z,96.20
2018-05-31T14:48:55.885Z,96.10
2018-05-31T14:51:23.434Z,95.60
2018-05-31T14:53:50.932Z,95.50
2018-05-31T14:56:18.615Z,95.60
2018-05-31T14:58:46.875Z,94.90
2018-05-31T15:01:14.372Z,94.90
2018-05-31T15:03:42.674Z,94.00
2018-05-31T15:06:10.931Z,94.00
2018-05-31T15:08:38.420Z,94.00
2018-05-31T15:11:05.990Z,94.30
2018-05-31T15:13:33.470Z,94.50
2018-05-31T15:16:01.012Z,94.80
2018-05-31T15:18:28.498Z,94.90
2018-05-31T15:20:56.000Z,95.40
2018-05-31T15:23:23.696Z,95.90
2018-05-31T15:25:51.187Z,96.10
2018-05-31T15:28:18.670Z,96.40
2018-05-31T15:30:46.216Z,96.70
2018-05-31T15:33:13.708Z,96.90
2018-05-31T15:35:41.517Z,96.80
2018-05-31T15:38:09.982Z,97.00
2018-05-31T15:40:37.471Z,97.00
2018-05-31T15:43:04.956Z,97.20
2018-05-31T15:45:33.255Z,97.30
2018-05-31T15:48:00.755Z,97.20
2018-05-31T15:50:28.242Z,97.30
2018-05-31T15:52:55.765Z,97.90
2018-05-31T15:55:24.028Z,98.30
2018-05-31T15:57:51.565Z,98.30
2018-05-31T16:00:19.121Z,98.40
2018-05-31T16:02:47.342Z,98.40
2018-05-31T16:05:14.875Z,98.40
2018-05-31T16:07:42.372Z,98.40
2018-05-31T16:10:10.076Z,99.00
2018-05-31T16:12:38.404Z,99.70
2018-05-31T16:15:05.920Z,99.70
2018-05-31T16:17:33.459Z,99.90
2018-05-31T16:20:00.971Z,99.90
2018-05-31T16:22:28.483Z,99.90
2018-05-31T16:24:56.158Z,99.40
2018-05-31T16:27:23.651Z,99.40
2018-05-31T16:29:51.143Z,99.60
2018-05-31T16:32:18.663Z,98.40
2018-05-31T16:34:46.152Z,98.20
2018-05-31T16:37:13.832Z,98.20
2018-05-31T16:39:41.335Z,98.20
2018-05-31T16:42:08.826Z,98.10
2018-05-31T16:44:36.350Z,98.50
2018-05-31T16:47:03.844Z,98.80
2018-05-31T16:49:31.343Z,98.50
2018-05-31T16:51:58.883Z,98.30
2018-05-31T16:54:26.399Z,98.80
2018-05-31T16:56:54.650Z,98.90
2018-05-31T16:59:22.193Z,98.80
2018-05-31T17:01:49.692Z,99.10
2018-05-31T17:04:17.226Z,99.10
2018-05-31T17:06:45.493Z,99.40
2018-05-31T17:09:13.746Z,99.30
2018-05-31T17:11:41.266Z,99.20
2018-05-31T17:14:08.762Z,99.20
2018-05-31T17:16:36.248Z,99.10
2018-05-31T17:19:03.787Z,99.10
2018-05-31T17:21:31.285Z,99.40
2018-05-31T17:23:58.823Z,99.40
2018-05-31T17:26:26.343Z,99.50
2018-05-31T17:28:53.856Z,99.40
2018-05-31T17:31:21.396Z,98.60
2018-05-31T17:33:49.698Z,98.30
2018-05-31T17:36:17.951Z,97.70
2018-05-31T17:38:45.482Z,97.70
2018-05-31T17:41:12.979Z,97.70
2018-05-31T17:43:40.471Z,97.80
2018-05-31T17:46:07.997Z,98.40
2018-05-31T17:48:35.499Z,98.40
2018-05-31T17:51:02.992Z,98.40
2018-05-31T17:53:30.688Z,98.90
2018-05-31T17:55:58.942Z,99.90
2018-05-31T17:58:26.448Z,99.90
2018-05-31T18:00:54.754Z,99.90
2018-05-31T18:03:22.293Z,99.90
2018-05-31T18:05:49.757Z,99.90
2018-05-31T18:08:17.295Z,99.70
2018-05-31T18:10:44.787Z,98.20
2018-05-31T18:13:12.293Z,98.40
2018-05-31T18:15:39.954Z,98.60
2018-05-31T18:18:08.239Z,97.90
2018-05-31T18:20:36.494Z,98.00
2018-05-31T18:23:04.051Z,98.00
2018-05-31T18:25:31.561Z,98.10
2018-05-31T18:27:59.100Z,98.20
2018-05-31T18:30:26.607Z,98.30
2018-05-31T18:32:54.875Z,98.40
2018-05-31T18:35:22.569Z,98.30
2018-05-31T18:37:50.066Z,98.50
2018-05-31T18:40:17.560Z,98.60
2018-05-31T18:42:45.312Z,98.60
2018-05-31T18:45:12.796Z,99.00
2018-05-31T18:47:40.313Z,98.50
2018-05-31T18:50:07.869Z,98.60
2018-05-31T18:52:35.372Z,98.70
2018-05-31T18:55:03.784Z,98.70
2018-05-31T18:57:31.277Z,98.60
2018-05-31T18:59:58.820Z,98.90
2018-05-31T19:02:27.114Z,99.10
2018-05-31T19:04:54.608Z,99.10
2018-05-31T19:07:25.933Z,99.20
2018-05-31T19:09:53.620Z,99.40
2018-05-31T19:15:26.178Z,99.70
2018-05-31T19:17:54.396Z,99.90
2018-05-31T19:20:21.895Z,99.90
2018-05-31T19:22:50.208Z,99.90
2018-05-31T19:25:21.542Z,99.90
2018-05-31T19:27:49.857Z,99.90
2018-05-31T19:30:23.104Z,99.90
2018-05-31T19:32:50.638Z,99.90
2018-05-31T19:35:24.280Z,99.90
2018-05-31T19:37:51.923Z,99.90
2018-05-31T19:40:19.432Z,99.90
2018-05-31T19:42:52.735Z,99.90
2018-05-31T19:45:20.225Z,99.90
2018-05-31T19:47:47.723Z,99.90
2018-05-31T19:50:15.270Z,99.90
2018-05-31T19:52:48.518Z,99.90
2018-05-31T19:55:16.068Z,99.90
2018-05-31T19:57:49.160Z,99.90
2018-05-31T20:00:22.542Z,99.90
2018-05-31T20:02:55.806Z,99.90
2018-05-31T20:05:23.355Z,99.90
2018-05-31T20:07:51.622Z,99.90
2018-05-31T20:10:19.132Z,99.90
2018-05-31T20:12:46.677Z,99.90
2018-05-31T20:15:14.952Z,99.90
2018-05-31T20:17:42.468Z,99.90
2018-05-31T20:20:10.015Z,99.90
2018-05-31T20:22:38.281Z,99.90
2018-05-31T20:25:05.820Z,99.90
2018-05-31T20:27:33.314Z,99.90
2018-05-31T20:30:00.819Z,99.90
2018-05-31T20:32:29.178Z,99.90
2018-05-31T20:34:56.644Z,99.90
2018-05-31T20:37:24.138Z,99.90
2018-05-31T20:39:52.583Z,99.90
2018-05-31T20:42:20.083Z,99.90
2018-05-31T20:44:47.579Z,99.90
2018-05-31T20:47:15.114Z,99.90
2018-05-31T20:49:42.616Z,99.90
2018-05-31T20:52:10.919Z,99.90
2018-05-31T20:54:38.408Z,99.90
2018-05-31T20:57:05.895Z,99.90
2018-05-31T21:11:07.294Z,99.90
2018-05-31T21:13:34.800Z,99.90
2018-05-31T21:16:03.066Z,99.90
2018-05-31T21:18:30.746Z,99.90
2018-05-31T21:20:58.248Z,99.90
2018-05-31T21:23:25.760Z,99.90
2018-05-31T21:25:53.302Z,99.90
2018-05-31T21:28:20.798Z,99.90
2018-05-31T21:30:48.484Z,99.90
2018-05-31T21:33:15.985Z,99.90
2018-05-31T21:35:44.277Z,99.90
2018-05-31T21:38:12.587Z,99.90
2018-05-31T21:40:40.097Z,99.90
2018-05-31T21:43:07.595Z,99.90
2018-05-31T21:45:35.147Z,99.90
2018-05-31T21:48:02.656Z,99.90
2018-05-31T21:50:30.929Z,99.90
2018-05-31T21:52:58.471Z,99.90
2018-05-31T21:55:25.978Z,99.90
2018-05-31T21:57:54.285Z,99.90
2018-05-31T22:00:31.308Z,99.90
2018-05-31T22:02:58.815Z,99.90
2018-05-31T22:05:26.325Z,99.90
2018-05-31T22:07:53.868Z,99.90
2018-05-31T22:10:21.362Z,99.90
2018-05-31T22:12:49.659Z,99.90
2018-05-31T22:15:17.213Z,99.90
2018-05-31T22:17:45.493Z,99.90
2018-05-31T22:20:13.769Z,99.90
2018-05-31T22:22:41.470Z,99.90
2018-05-31T22:25:09.743Z,99.90
2018-05-31T22:27:37.241Z,99.90
2018-05-31T22:30:04.779Z,99.90
2018-05-31T22:32:33.063Z,99.90
2018-05-31T22:35:00.599Z,99.90
2018-05-31T22:37:28.111Z,99.90
2018-05-31T22:39:55.615Z,99.90
2018-05-31T22:42:23.310Z,99.90
2018-05-31T22:44:50.828Z,99.90
2018-05-31T22:47:18.343Z,99.90
2018-05-31T22:49:45.893Z,99.90
2018-05-31T22:52:13.404Z,99.90
2018-05-31T22:54:41.048Z,99.90
2018-05-31T22:57:08.562Z,99.90
2018-05-31T22:59:36.065Z,99.90
2018-05-31T23:02:04.560Z,99.90
2018-05-31T23:04:32.855Z,99.90
2018-05-31T23:07:01.159Z,99.90
2018-05-31T23:09:28.829Z,99.90
2018-05-31T23:11:56.390Z,99.90
2018-05-31T23:14:24.680Z,99.90
2018-05-31T23:16:53.140Z,99.90
2018-05-31T23:19:20.669Z,99.90
2018-05-31T23:21:48.166Z,99.90
2018-05-31T23:24:15.846Z,99.90
2018-05-31T23:26:43.356Z,99.90
2018-05-31T23:29:11.641Z,99.90
2018-05-31T23:31:39.204Z,99.90
2018-05-31T23:34:07.484Z,99.90
2018-05-31T23:36:35.001Z,99.90
2018-05-31T23:39:02.559Z,99.90
2018-05-31T23:41:30.058Z,99.90
2018-05-31T23:43:57.609Z,99.90
2018-05-31T23:46:25.120Z,99.90
2018-05-31T23:48:52.615Z,99.90
2018-05-31T23:51:20.935Z,99.90
2018-05-31T23:53:48.439Z,99.90
2018-05-31T23:56:16.124Z,99.90
2018-05-31T23:58:43.640Z,99.90
